Time;durP1;ratioP1;P1;durP2;ratioP2;P2;SDS_P1;SDS_P2;PMS_P1;PMS_P2;Temp;Humidity;BMP_temperature;BMP_pressure;BME280_temperature;BME280_humidity;BME280_pressure;Samples;Min_cycle;Max_cycle;Signal;HPM_P1;HPM_P2
2020/12/16 09:05:22;;;;;;;1.33;0.90;;;18.20;71.60;;;;;;5094673;27;20121;-38
2020/12/16 09:07:47;;;;;;;0.70;0.50;;;18.20;72.40;;;;;;5084604;28;20024;-53
2020/12/16 09:10:15;;;;;;;0.75;0.70;;;18.30;72.20;;;;;;5104425;28;20096;-41
2020/12/16 09:12:42;;;;;;;1.00;0.85;;;18.30;72.00;;;;;;5103952;28;20028;-39
2020/12/16 09:15:11;;;;;;;2.65;0.85;;;18.30;71.80;;;;;;5106333;28;20062;-39
2020/12/16 09:17:37;;;;;;;0.95;0.70;;;18.40;71.80;;;;;;5088233;28;20023;-43
2020/12/16 09:20:10;;;;;;;1.42;0.60;;;18.40;71.70;;;;;;5104618;28;20020;-41
2020/12/16 09:22:36;;;;;;;2.55;0.70;;;18.40;71.50;;;;;;5104964;28;20016;-52
2020/12/16 09:25:01;;;;;;;0.55;0.40;;;18.40;71.30;;;;;;5102331;28;20440;-38
2020/12/16 09:27:27;;;;;;;1.48;0.52;;;18.50;71.30;;;;;;5105623;28;20036;-39
2020/12/16 09:29:52;;;;;;;0.82;0.55;;;18.50;71.20;;;;;;5105817;28;20027;-41
2020/12/16 09:32:19;;;;;;;1.48;0.77;;;18.50;70.90;;;;;;5103828;28;20089;-37
2020/12/16 09:34:47;;;;;;;0.50;0.50;;;18.50;70.80;;;;;;5104091;28;20419;-40
2020/12/16 09:37:15;;;;;;;2.10;0.85;;;18.50;70.70;;;;;;5104799;28;20018;-43
2020/12/16 09:39:44;;;;;;;2.70;0.60;;;18.50;70.60;;;;;;5104873;28;21294;-37
2020/12/16 09:42:15;;;;;;;0.90;0.60;;;18.50;71.30;;;;;;5106811;28;20020;-41
2020/12/16 09:44:40;;;;;;;1.48;0.75;;;18.50;70.50;;;;;;5103217;28;20108;-46
2020/12/16 09:47:13;;;;;;;1.50;0.60;;;18.50;70.50;;;;;;5103900;28;20480;-38
2020/12/16 09:49:39;;;;;;;2.65;0.60;;;18.50;70.50;;;;;;5100661;28;20028;-38
2020/12/16 09:52:05;;;;;;;1.88;0.50;;;18.60;70.50;;;;;;5104773;28;20088;-37
2020/12/16 09:54:31;;;;;;;0.70;0.57;;;18.60;70.40;;;;;;5104924;28;20031;-41
2020/12/16 09:57:09;;;;;;;0.90;0.45;;;18.60;71.10;;;;;;5105554;28;20081;-37
2020/12/16 09:59:34;;;;;;;2.20;0.80;;;18.60;70.30;;;;;;5103291;28;20031;-38
2020/12/16 10:02:00;;;;;;;0.57;0.40;;;18.60;70.20;;;;;;5103663;28;20065;-38
2020/12/16 10:04:26;;;;;;;1.95;0.57;;;18.60;70.10;;;;;;5102618;28;20047;-42
2020/12/16 10:06:52;;;;;;;2.05;0.55;;;18.60;70.20;;;;;;5101782;28;20016;-38
2020/12/16 10:09:17;;;;;;;0.80;0.50;;;18.60;70.00;;;;;;5106545;28;20032;-44
2020/12/16 10:11:47;;;;;;;0.63;0.50;;;18.60;69.90;;;;;;5103364;28;20024;-39
2020/12/16 10:14:14;;;;;;;1.50;0.55;;;18.60;69.90;;;;;;5103036;28;20105;-38
2020/12/16 10:16:40;;;;;;;3.42;0.50;;;18.60;69.90;;;;;;5088669;28;20028;-38
2020/12/16 10:19:05;;;;;;;0.65;0.45;;;18.60;70.50;;;;;;5089012;28;20522;-40
2020/12/16 10:21:31;;;;;;;0.47;0.40;;;18.60;70.50;;;;;;5090440;28;20020;-40
2020/12/16 10:23:56;;;;;;;2.60;0.60;;;18.60;69.70;;;;;;5091482;28;20028;-38
2020/12/16 10:26:22;;;;;;;0.82;0.40;;;18.70;69.70;;;;;;5089153;28;20604;-38
2020/12/16 10:28:47;;;;;;;0.43;0.40;;;18.70;69.60;;;;;;5084643;28;20020;-43
2020/12/16 10:31:13;;;;;;;0.60;0.50;;;18.70;69.60;;;;;;5089020;28;20074;-43
2020/12/16 10:33:39;;;;;;;3.88;0.55;;;18.70;69.50;;;;;;5089380;28;20040;-45
2020/12/16 10:36:04;;;;;;;1.67;0.57;;;18.70;69.40;;;;;;5090733;28;20393;-46
2020/12/16 10:38:30;;;;;;;0.60;0.50;;;18.70;69.40;;;;;;5088378;28;20032;-43
2020/12/16 10:40:55;;;;;;;0.60;0.55;;;18.70;69.20;;;;;;5089874;28;20510;-55
2020/12/16 10:43:21;;;;;;;0.73;0.50;;;18.70;69.30;;;;;;5085036;28;20426;-43
2020/12/16 10:45:46;;;;;;;0.82;0.55;;;18.70;69.20;;;;;;5089868;28;20028;-43
2020/12/16 10:48:12;;;;;;;0.68;0.50;;;18.70;69.20;;;;;;5091023;28;20036;-43
2020/12/16 10:50:37;;;;;;;0.60;0.50;;;18.70;69.20;;;;;;5088829;28;20039;-44
2020/12/16 10:53:03;;;;;;;2.70;0.30;;;18.70;69.20;;;;;;5088503;28;20503;-44
2020/12/16 10:55:28;;;;;;;2.85;0.40;;;18.70;69.10;;;;;;5080207;28;20407;-43
2020/12/16 10:57:54;;;;;;;0.60;0.60;;;18.70;68.90;;;;;;5088005;28;20020;-43
2020/12/16 11:00:19;;;;;;;1.30;0.40;;;18.70;69.40;;;;;;5090396;28;20595;-46
2020/12/16 11:02:47;;;;;;;0.50;0.50;;;18.70;69.00;;;;;;5090311;28;20016;-46
2020/12/16 11:05:13;;;;;;;0.40;0.40;;;18.70;68.90;;;;;;5087496;28;20060;-47
2020/12/16 11:07:38;;;;;;;1.52;0.30;;;18.80;68.90;;;;;;5086260;28;20058;-50
2020/12/16 11:10:04;;;;;;;2.30;0.38;;;18.80;68.80;;;;;;5088586;28;20036;-46
2020/12/16 11:12:29;;;;;;;0.85;0.70;;;18.70;68.70;;;;;;5087811;28;20024;-38
2020/12/16 11:14:55;;;;;;;0.40;0.40;;;18.70;68.60;;;;;;5089931;28;20047;-37
2020/12/16 11:17:20;;;;;;;0.30;0.30;;;18.70;68.70;;;;;;5089682;28;20476;-38
2020/12/16 11:19:46;;;;;;;0.40;0.40;;;18.70;68.70;;;;;;5088891;28;20396;-38
2020/12/16 11:22:12;;;;;;;0.55;0.40;;;18.70;69.50;;;;;;5089143;28;20043;-38
2020/12/16 11:24:37;;;;;;;0.52;0.40;;;18.70;69.60;;;;;;5087609;28;20115;-40
2020/12/16 11:27:03;;;;;;;1.45;0.40;;;18.70;68.60;;;;;;5089685;28;20059;-40
2020/12/16 11:29:38;;;;;;;0.73;0.30;;;18.70;68.50;;;;;;5082698;28;20024;-39
2020/12/16 11:32:04;;;;;;;1.00;0.35;;;18.80;68.60;;;;;;4720604;28;10000650;-39
2020/12/16 11:34:32;;;;;;;0.57;0.50;;;18.70;69.10;;;;;;5078477;28;20511;-38
2020/12/16 11:36:59;;;;;;;1.42;0.40;;;18.70;68.40;;;;;;5066898;28;20062;-47
2020/12/16 11:39:25;;;;;;;0.75;0.60;;;18.70;68.40;;;;;;5061018;28;20025;-36
2020/12/16 11:41:52;;;;;;;2.42;0.57;;;18.70;68.40;;;;;;5062777;28;20016;-36
2020/12/16 11:44:19;;;;;;;3.45;0.47;;;18.80;68.30;;;;;;5064529;28;20479;-40
2020/12/16 11:46:44;;;;;;;4.75;0.90;;;18.80;68.20;;;;;;5064779;28;20108;-38
2020/12/16 11:49:10;;;;;;;2.40;0.70;;;18.80;68.20;;;;;;5068382;28;20119;-37
2020/12/16 11:51:36;;;;;;;2.47;0.50;;;18.70;68.30;;;;;;5064806;28;20016;-46
2020/12/16 11:54:02;;;;;;;2.97;1.53;;;18.70;68.50;;;;;;4715855;28;9999778;-38
2020/12/16 11:56:31;;;;;;;5.18;1.30;;;18.70;68.60;;;;;;5065087;28;20024;-38
2020/12/16 11:58:56;;;;;;;2.15;1.40;;;18.70;68.80;;;;;;5060996;28;20025;-41
2020/12/16 12:01:22;;;;;;;4.93;1.33;;;18.60;69.00;;;;;;5065126;28;20027;-44
2020/12/16 12:03:47;;;;;;;4.18;1.20;;;18.70;70.00;;;;;;5065111;28;20143;-38
2020/12/16 12:06:14;;;;;;;4.40;1.23;;;18.60;69.20;;;;;;5065827;28;20051;-35
2020/12/16 12:08:40;;;;;;;4.45;1.00;;;18.70;69.40;;;;;;5065286;28;20495;-36
2020/12/16 12:11:05;;;;;;;12.73;1.40;;;18.70;69.50;;;;;;5059877;28;20029;-37
2020/12/16 12:13:31;;;;;;;6.88;0.95;;;18.70;69.50;;;;;;5064818;28;20036;-38
2020/12/16 12:15:57;;;;;;;6.32;0.90;;;18.70;69.40;;;;;;5057094;28;20404;-36
2020/12/16 12:18:23;;;;;;;6.82;1.20;;;18.70;69.40;;;;;;5065257;28;20027;-36
2020/12/16 12:20:48;;;;;;;1.15;0.93;;;18.70;69.20;;;;;;5064826;28;20021;-44
2020/12/16 12:23:14;;;;;;;3.92;1.23;;;18.70;69.20;;;;;;5064939;28;20113;-37
2020/12/16 12:25:39;;;;;;;2.08;0.80;;;18.70;69.20;;;;;;5063529;28;20034;-39
2020/12/16 12:28:05;;;;;;;2.25;1.17;;;18.70;69.30;;;;;;5064528;28;20048;-43
2020/12/16 12:30:31;;;;;;;4.80;0.70;;;18.70;69.30;;;;;;5065435;28;20035;-46
2020/12/16 12:32:56;;;;;;;9.10;1.05;;;18.70;69.30;;;;;;5064623;28;20502;-37
2020/12/16 12:35:22;;;;;;;1.75;0.70;;;18.70;69.30;;;;;;5063062;28;20097;-42
2020/12/16 12:37:47;;;;;;;2.30;0.90;;;18.70;69.30;;;;;;5060387;28;20520;-41
2020/12/16 12:40:13;;;;;;;1.98;0.82;;;18.70;69.20;;;;;;5061827;28;20111;-38
2020/12/16 12:42:38;;;;;;;2.60;0.80;;;18.80;69.30;;;;;;5062914;28;20121;-40
2020/12/16 12:45:05;;;;;;;3.80;0.88;;;18.70;70.00;;;;;;5066517;28;20426;-40
2020/12/16 12:47:39;;;;;;;2.80;0.90;;;18.70;69.40;;;;;;5065824;28;20032;-39
2020/12/16 12:50:05;;;;;;;0.93;0.65;;;18.80;69.70;;;;;;5063371;28;20490;-39
2020/12/16 12:52:30;;;;;;;1.90;0.93;;;18.80;69.70;;;;;;5063260;28;20062;-39
2020/12/16 12:54:56;;;;;;;4.32;0.85;;;18.70;69.60;;;;;;5063424;28;20127;-47
2020/12/16 12:57:24;;;;;;;3.30;0.63;;;18.70;69.60;;;;;;5064002;28;20027;-40
2020/12/16 12:59:50;;;;;;;2.78;0.80;;;18.80;69.60;;;;;;5064090;28;20135;-38
2020/12/16 13:02:15;;;;;;;1.88;0.63;;;18.80;69.60;;;;;;5063661;28;20033;-38
2020/12/16 13:04:41;;;;;;;8.82;1.30;;;18.80;69.60;;;;;;5063661;28;20087;-37
2020/12/16 13:07:07;;;;;;;4.20;0.75;;;18.80;69.50;;;;;;5064486;28;20033;-44
2020/12/16 13:09:32;;;;;;;3.03;1.00;;;18.80;69.50;;;;;;5064946;28;20025;-37
2020/12/16 13:11:58;;;;;;;0.68;0.50;;;18.70;70.20;;;;;;5065625;28;20029;-40
2020/12/16 13:14:23;;;;;;;2.55;0.68;;;18.80;69.40;;;;;;5064985;28;20144;-41
2020/12/16 13:16:49;;;;;;;1.52;0.70;;;18.70;69.40;;;;;;5061705;28;20035;-40
2020/12/16 13:19:17;;;;;;;3.15;0.60;;;18.80;69.40;;;;;;5063289;28;20037;-45
2020/12/16 13:21:49;;;;;;;4.15;0.80;;;18.80;69.40;;;;;;5063525;28;20020;-39
2020/12/16 13:24:15;;;;;;;0.88;0.60;;;18.80;69.40;;;;;;5063372;28;20859;-40
2020/12/16 13:26:44;;;;;;;3.00;0.57;;;18.80;69.30;;;;;;5064495;28;20043;-39
2020/12/16 13:29:10;;;;;;;3.70;0.43;;;18.80;69.20;;;;;;5054516;28;20633;-44
2020/12/16 13:31:36;;;;;;;1.55;0.60;;;18.80;69.20;;;;;;5064487;28;20033;-41
2020/12/16 13:34:01;;;;;;;1.58;0.80;;;18.80;69.20;;;;;;5063145;28;20071;-40
2020/12/16 13:36:27;;;;;;;6.10;0.70;;;18.70;69.10;;;;;;5061068;28;20028;-44
2020/12/16 13:38:52;;;;;;;2.13;0.70;;;18.80;69.20;;;;;;5060757;28;20037;-41
2020/12/16 13:41:18;;;;;;;1.27;0.60;;;18.80;69.20;;;;;;5063773;28;20032;-49
2020/12/16 13:43:43;;;;;;;4.93;0.80;;;18.70;69.10;;;;;;5063463;28;20024;-38
2020/12/16 13:46:11;;;;;;;1.45;0.70;;;18.80;69.20;;;;;;5064545;28;20531;-42
2020/12/16 13:48:37;;;;;;;1.23;0.50;;;18.80;69.10;;;;;;5063939;28;20017;-39
2020/12/16 13:51:02;;;;;;;4.68;0.80;;;18.80;69.10;;;;;;5065754;28;20043;-45
2020/12/16 13:53:28;;;;;;;7.30;0.57;;;18.70;69.00;;;;;;5067251;28;20041;-40
2020/12/16 13:55:53;;;;;;;5.97;0.68;;;18.70;69.00;;;;;;5068306;28;20055;-40
2020/12/16 13:58:20;;;;;;;3.10;0.75;;;18.70;69.00;;;;;;5066980;28;20724;-41
2020/12/16 14:00:45;;;;;;;2.20;0.70;;;18.70;69.00;;;;;;5063856;28;20036;-39
2020/12/16 14:03:11;;;;;;;4.30;0.70;;;18.70;69.00;;;;;;5068283;28;20052;-39
2020/12/16 14:05:37;;;;;;;2.40;0.57;;;18.80;69.00;;;;;;5066751;28;20062;-39
2020/12/16 14:08:03;;;;;;;2.92;0.80;;;18.80;69.00;;;;;;5066281;28;20024;-43
2020/12/16 14:10:29;;;;;;;1.10;0.63;;;18.80;69.00;;;;;;5066338;28;20086;-40
2020/12/16 14:12:54;;;;;;;1.63;0.60;;;18.80;69.00;;;;;;5066996;28;20037;-41
2020/12/16 14:15:20;;;;;;;2.05;0.60;;;18.80;68.90;;;;;;5062559;28;20052;-43
2020/12/16 14:17:46;;;;;;;1.15;0.60;;;18.80;68.80;;;;;;5067480;28;20025;-43
2020/12/16 14:20:12;;;;;;;3.67;0.55;;;18.80;68.80;;;;;;5059196;28;20449;-40
2020/12/16 14:22:37;;;;;;;2.83;0.68;;;18.80;68.80;;;;;;5062048;28;20479;-40
2020/12/16 14:25:09;;;;;;;3.42;0.90;;;18.80;68.70;;;;;;5064398;28;20089;-38
2020/12/16 14:27:35;;;;;;;0.73;0.65;;;18.80;68.70;;;;;;5064191;28;20039;-39
2020/12/16 14:30:07;;;;;;;2.35;0.32;;;18.70;68.60;;;;;;5067304;28;20020;-40
2020/12/16 14:32:33;;;;;;;3.92;0.47;;;18.80;68.60;;;;;;5067480;28;20032;-39
2020/12/16 14:34:59;;;;;;;3.20;0.50;;;18.80;68.60;;;;;;5064048;28;20111;-39
2020/12/16 14:37:25;;;;;;;3.10;0.43;;;18.80;68.40;;;;;;5066714;28;20032;-46
2020/12/16 14:39:51;;;;;;;2.67;0.50;;;18.80;68.60;;;;;;5067397;28;20574;-40
2020/12/16 14:42:17;;;;;;;0.73;0.50;;;18.80;68.60;;;;;;5063747;28;20028;-43
2020/12/16 14:44:43;;;;;;;1.48;0.55;;;18.80;68.60;;;;;;5059568;28;20257;-40
2020/12/16 14:47:08;;;;;;;6.07;0.40;;;18.80;68.60;;;;;;5065084;28;20023;-41
2020/12/16 14:49:34;;;;;;;1.40;0.40;;;18.80;68.60;;;;;;5064381;28;20496;-42
2020/12/16 14:52:08;;;;;;;1.86;0.59;;;18.80;68.60;;;;;;5021616;28;10000577;-42
2020/12/16 14:54:34;;;;;;;2.75;0.40;;;18.80;68.60;;;;;;5063449;28;20265;-39
2020/12/16 14:56:59;;;;;;;3.15;0.45;;;18.80;68.70;;;;;;5069075;28;20020;-45
2020/12/16 14:59:25;;;;;;;2.83;0.60;;;18.80;68.80;;;;;;5068104;28;20043;-39
2020/12/16 15:01:51;;;;;;;7.00;0.57;;;18.80;68.70;;;;;;5063731;28;20074;-41
2020/12/16 15:04:17;;;;;;;0.75;0.40;;;18.80;68.70;;;;;;5068278;28;20126;-39
2020/12/16 15:06:43;;;;;;;1.92;0.60;;;18.70;69.40;;;;;;5068615;28;20037;-41
2020/12/16 15:09:08;;;;;;;2.00;0.47;;;18.70;68.60;;;;;;5070161;28;20436;-41
2020/12/16 15:11:35;;;;;;;0.63;0.52;;;18.70;68.60;;;;;;5067260;28;20036;-39
2020/12/16 15:14:01;;;;;;;2.67;0.60;;;18.70;68.50;;;;;;5066855;28;20028;-40
2020/12/16 15:16:30;;;;;;;4.57;0.90;;;18.70;68.60;;;;;;5064691;28;20092;-40
2020/12/16 15:18:56;;;;;;;9.88;2.13;;;18.70;69.30;;;;;;5066746;28;20059;-39
2020/12/16 15:21:22;;;;;;;2.72;2.15;;;18.70;68.40;;;;;;5066805;28;20017;-39
2020/12/16 15:23:48;;;;;;;5.15;2.20;;;18.70;68.40;;;;;;5067327;28;20036;-43
2020/12/16 15:26:14;;;;;;;6.18;2.45;;;18.70;68.50;;;;;;5048427;28;20036;-39
2020/12/16 15:28:39;;;;;;;5.32;2.20;;;18.70;68.50;;;;;;5065842;28;20059;-39
2020/12/16 15:31:05;;;;;;;2.17;2.00;;;18.70;69.30;;;;;;5067456;28;20029;-40
2020/12/16 15:33:30;;;;;;;4.70;1.90;;;18.70;68.60;;;;;;5066590;28;20042;-39
2020/12/16 15:35:56;;;;;;;6.95;2.60;;;18.70;68.60;;;;;;5068123;28;20154;-39
2020/12/16 15:38:22;;;;;;;3.58;2.00;;;18.70;68.60;;;;;;5065098;22;20096;-39
2020/12/16 15:40:47;;;;;;;4.55;2.00;;;18.60;68.70;;;;;;5030302;28;20041;-39
2020/12/16 15:43:13;;;;;;;4.43;2.42;;;18.60;68.70;;;;;;5027269;28;20025;-40
2020/12/16 15:45:39;;;;;;;3.00;1.88;;;18.60;68.70;;;;;;5032903;28;20029;-41
2020/12/16 15:48:04;;;;;;;3.15;2.05;;;18.70;68.70;;;;;;5033524;28;20154;-43
2020/12/16 15:50:30;;;;;;;3.42;2.30;;;18.70;69.40;;;;;;5028506;28;20043;-40
2020/12/16 15:52:55;;;;;;;2.45;1.67;;;18.60;68.60;;;;;;5026637;28;20084;-40
2020/12/16 15:55:21;;;;;;;2.10;1.73;;;18.70;68.50;;;;;;5029640;28;20048;-40
2020/12/16 15:57:47;;;;;;;3.60;1.63;;;18.60;68.40;;;;;;5029575;28;20029;-40
2020/12/16 16:00:13;;;;;;;3.65;2.10;;;18.70;69.20;;;;;;5035690;28;20550;-38
2020/12/16 16:02:38;;;;;;;2.25;1.40;;;18.70;68.40;;;;;;5028721;28;20028;-39
2020/12/16 16:05:05;;;;;;;2.15;1.50;;;18.70;68.40;;;;;;5029597;28;20038;-38
2020/12/16 16:07:31;;;;;;;2.33;1.95;;;18.70;68.20;;;;;;5028876;28;20481;-38
2020/12/16 16:09:56;;;;;;;2.22;1.70;;;18.70;68.30;;;;;;5041924;28;20037;-39
2020/12/16 16:12:22;;;;;;;3.55;1.52;;;18.70;69.10;;;;;;5030961;28;20487;-39
2020/12/16 16:14:47;;;;;;;1.55;1.45;;;18.70;68.30;;;;;;5028983;28;20055;-40
2020/12/16 16:17:13;;;;;;;6.07;1.92;;;18.70;68.30;;;;;;5028475;28;20026;-39
2020/12/16 16:19:39;;;;;;;4.20;1.70;;;18.70;69.10;;;;;;5029716;28;20554;-39
2020/12/16 16:22:05;;;;;;;1.83;1.20;;;18.70;68.40;;;;;;5027247;28;20052;-41
2020/12/16 16:24:30;;;;;;;1.77;1.20;;;18.70;68.40;;;;;;5027374;28;20048;-39
2020/12/16 16:26:56;;;;;;;1.63;1.25;;;18.70;68.30;;;;;;5030104;28;20477;-39
2020/12/16 16:29:26;;;;;;;6.28;1.25;;;18.70;68.40;;;;;;5026809;28;20033;-38
2020/12/16 16:31:52;;;;;;;5.65;1.52;;;18.80;68.30;;;;;;5030671;28;20374;-38
2020/12/16 16:34:18;;;;;;;2.17;1.10;;;18.70;68.20;;;;;;5032433;28;20087;-38
2020/12/16 16:36:43;;;;;;;3.42;1.20;;;18.70;68.20;;;;;;5026943;28;20026;-40
2020/12/16 16:39:09;;;;;;;1.80;1.40;;;18.80;68.20;;;;;;5038419;28;20103;-40
2020/12/16 16:41:47;;;;;;;2.17;1.20;;;18.80;68.10;;;;;;5026322;28;20132;-39
2020/12/16 16:44:14;;;;;;;1.55;1.10;;;18.80;68.10;;;;;;4974877;28;20046;-44
2020/12/16 16:46:39;;;;;;;2.88;1.20;;;18.70;68.20;;;;;;4975112;28;20027;-43
2020/12/16 16:49:05;;;;;;;1.70;1.30;;;18.80;68.20;;;;;;4984167;28;20050;-41
2020/12/16 16:51:30;;;;;;;4.47;1.23;;;18.70;68.30;;;;;;4989783;28;20038;-38
2020/12/16 16:53:56;;;;;;;3.38;1.25;;;18.80;68.20;;;;;;4993111;28;20046;-38
2020/12/16 16:56:21;;;;;;;1.95;1.27;;;18.80;68.10;;;;;;4987693;28;20081;-37
2020/12/16 16:58:47;;;;;;;1.77;1.17;;;18.80;67.90;;;;;;4987513;28;20165;-37
2020/12/16 17:01:13;;;;;;;2.25;1.23;;;18.80;68.90;;;;;;4988056;28;20054;-37
2020/12/16 17:03:38;;;;;;;1.75;1.30;;;18.80;68.20;;;;;;4989485;28;20101;-38
2020/12/16 17:06:04;;;;;;;2.00;1.20;;;18.80;68.10;;;;;;4993135;28;20460;-39
2020/12/16 17:08:29;;;;;;;1.50;1.30;;;18.80;68.00;;;;;;4983763;28;20055;-38
2020/12/16 17:10:55;;;;;;;2.28;2.08;;;18.90;68.20;;;;;;4983057;28;20049;-39
2020/12/16 17:13:21;;;;;;;5.47;2.08;;;18.90;67.80;;;;;;4984829;28;20092;-36
2020/12/16 17:15:47;;;;;;;4.45;2.60;;;18.90;67.80;;;;;;4981588;28;20518;-37
2020/12/16 17:18:12;;;;;;;2.83;2.35;;;18.90;67.80;;;;;;4993642;28;21383;-43
2020/12/16 17:20:38;;;;;;;2.90;2.20;;;18.90;68.00;;;;;;4986394;28;20402;-37
2020/12/16 17:23:04;;;;;;;2.33;1.65;;;18.80;68.00;;;;;;4988315;28;20061;-45
2020/12/16 17:25:29;;;;;;;4.07;2.30;;;18.90;68.40;;;;;;4983979;28;20050;-38
2020/12/16 17:27:55;;;;;;;4.03;2.30;;;18.90;68.10;;;;;;4988178;28;20058;-38
2020/12/16 17:30:21;;;;;;;5.10;1.95;;;18.90;69.00;;;;;;4995157;28;20045;-44
2020/12/16 17:32:46;;;;;;;4.90;1.85;;;18.90;68.20;;;;;;5009672;28;20042;-40
2020/12/16 17:35:12;;;;;;;9.13;4.78;;;18.90;68.20;;;;;;5010708;28;20069;-39
2020/12/16 17:37:38;;;;;;;4.68;3.33;;;18.90;69.40;;;;;;4661271;28;10000630;-42
2020/12/16 17:40:05;;;;;;;6.57;4.25;;;18.90;68.40;;;;;;5010786;28;20200;-39
2020/12/16 17:42:31;;;;;;;7.57;4.22;;;19.00;68.50;;;;;;5012317;28;20883;-38
2020/12/16 17:44:57;;;;;;;4.43;3.50;;;18.90;68.50;;;;;;5007205;28;20127;-39
2020/12/16 17:47:22;;;;;;;6.13;4.00;;;18.90;68.50;;;;;;5012594;28;20125;-40
2020/12/16 17:49:48;;;;;;;5.03;3.28;;;18.90;68.60;;;;;;5010125;28;20875;-40
2020/12/16 17:52:13;;;;;;;4.45;3.92;;;18.90;69.50;;;;;;5012768;28;20426;-39
2020/12/16 17:54:39;;;;;;;5.03;3.47;;;19.00;68.80;;;;;;5012591;28;20049;-40
2020/12/16 17:57:05;;;;;;;5.30;3.35;;;19.00;69.00;;;;;;5012965;28;20041;-43
2020/12/16 17:59:31;;;;;;;3.15;2.40;;;19.00;68.90;;;;;;5010811;28;20473;-40
2020/12/16 18:01:58;;;;;;;3.13;2.80;;;19.00;68.50;;;;;;5011806;28;20068;-46
2020/12/16 18:04:25;;;;;;;3.55;3.28;;;19.00;68.60;;;;;;4999293;28;20517;-50
2020/12/16 18:06:51;;;;;;;3.83;3.53;;;19.10;68.70;;;;;;5023218;28;20042;-40
2020/12/16 18:09:16;;;;;;;3.00;2.80;;;19.00;68.70;;;;;;5014834;28;20090;-40
2020/12/16 18:11:42;;;;;;;2.55;2.40;;;19.10;69.30;;;;;;5008590;28;20098;-40
2020/12/16 18:14:08;;;;;;;3.83;3.05;;;19.10;68.60;;;;;;5011533;28;20075;-42
2020/12/16 18:16:33;;;;;;;7.82;5.53;;;19.10;68.60;;;;;;5012307;28;20996;-38
2020/12/16 18:18:59;;;;;;;12.95;6.82;;;19.10;68.50;;;;;;5005115;28;20054;-42
2020/12/16 18:21:25;;;;;;;8.80;4.60;;;19.10;68.80;;;;;;5010724;28;20123;-39
2020/12/16 18:23:51;;;;;;;5.35;4.15;;;19.10;68.50;;;;;;5006366;28;20045;-39
2020/12/16 18:26:17;;;;;;;8.02;3.55;;;19.10;68.40;;;;;;5011034;28;20506;-47
2020/12/16 18:28:46;;;;;;;5.22;3.30;;;19.10;68.40;;;;;;5009072;28;20065;-46
2020/12/16 18:31:12;;;;;;;6.13;4.00;;;19.10;68.50;;;;;;5006609;28;20104;-41
2020/12/16 18:33:40;;;;;;;6.10;4.18;;;19.10;68.40;;;;;;5007612;28;20061;-40
2020/12/16 18:36:06;;;;;;;6.30;4.60;;;19.10;68.40;;;;;;5009325;28;20046;-40
2020/12/16 18:38:32;;;;;;;5.65;3.72;;;19.10;68.40;;;;;;5009477;28;20069;-40
2020/12/16 18:40:58;;;;;;;8.10;4.68;;;19.10;68.50;;;;;;5006578;28;20520;-40
2020/12/16 18:43:23;;;;;;;8.30;5.65;;;19.10;68.40;;;;;;5010217;28;20082;-51
2020/12/16 18:45:50;;;;;;;7.38;5.22;;;19.10;68.60;;;;;;5011266;28;20048;-40
2020/12/16 18:48:18;;;;;;;6.40;4.90;;;19.10;68.50;;;;;;5039192;28;20054;-41
2020/12/16 18:50:45;;;;;;;6.55;4.70;;;19.20;68.40;;;;;;5009772;28;20073;-44
2020/12/16 18:53:11;;;;;;;5.43;4.65;;;19.20;68.40;;;;;;5005758;28;20093;-40
2020/12/16 18:55:36;;;;;;;8.48;4.93;;;19.20;68.50;;;;;;5007249;28;20133;-45
2020/12/16 18:58:02;;;;;;;6.53;4.85;;;19.20;68.50;;;;;;5039131;28;20053;-40
2020/12/16 19:00:29;;;;;;;8.07;4.90;;;19.20;68.40;;;;;;5014055;28;20077;-43
2020/12/16 19:02:54;;;;;;;6.55;4.38;;;19.20;68.40;;;;;;5009480;28;20046;-39
2020/12/16 19:05:20;;;;;;;5.65;4.50;;;19.20;68.40;;;;;;5010182;28;20685;-39
2020/12/16 19:07:53;;;;;;;6.55;4.20;;;19.10;68.10;;;;;;5002272;28;20160;-48
2020/12/16 19:10:18;;;;;;;9.02;4.53;;;19.10;68.00;;;;;;5005326;28;20060;-39
2020/12/16 19:12:45;;;;;;;6.85;4.55;;;19.10;68.00;;;;;;5006466;28;20412;-41
2020/12/16 19:15:11;;;;;;;8.00;4.20;;;19.10;68.00;;;;;;5003720;28;20073;-38
2020/12/16 19:17:39;;;;;;;8.40;4.07;;;19.10;68.00;;;;;;5003539;28;20050;-40
2020/12/16 19:20:05;;;;;;;7.28;4.40;;;19.10;68.10;;;;;;5007402;28;20075;-38
2020/12/16 19:22:31;;;;;;;6.90;4.60;;;19.10;68.00;;;;;;5005629;28;20492;-38
2020/12/16 19:24:57;;;;;;;4.25;3.83;;;19.10;68.20;;;;;;5005299;28;20037;-40
2020/12/16 19:27:23;;;;;;;5.85;3.97;;;19.10;68.40;;;;;;5010993;28;20042;-44
2020/12/16 19:29:49;;;;;;;4.00;3.58;;;19.10;68.40;;;;;;5009374;28;20512;-45
2020/12/16 19:32:15;;;;;;;5.28;3.50;;;19.20;68.40;;;;;;5003531;28;20056;-44
2020/12/16 19:34:40;;;;;;;6.30;3.95;;;19.20;68.40;;;;;;5003955;28;20142;-41
2020/12/16 19:37:06;;;;;;;4.78;3.58;;;19.20;68.40;;;;;;5007455;28;20050;-40
2020/12/16 19:39:33;;;;;;;5.93;3.90;;;19.20;68.50;;;;;;5010522;28;20130;-46
2020/12/16 19:41:59;;;;;;;4.07;3.67;;;19.20;68.60;;;;;;5011772;28;20135;-41
2020/12/16 19:44:25;;;;;;;7.75;4.13;;;19.20;68.50;;;;;;5004445;28;20176;-51
2020/12/16 19:46:53;;;;;;;9.93;5.53;;;19.20;68.80;;;;;;5003313;28;20042;-41
2020/12/16 19:49:19;;;;;;;12.02;7.47;;;19.30;69.80;;;;;;5005611;28;20140;-42
2020/12/16 19:51:45;;;;;;;8.80;5.57;;;19.40;68.60;;;;;;5020968;28;20710;-43
2020/12/16 19:54:11;;;;;;;9.98;6.07;;;19.40;68.30;;;;;;5016641;28;20132;-44
2020/12/16 19:56:43;;;;;;;5.93;5.28;;;19.40;68.30;;;;;;5007444;28;20124;-44
2020/12/16 19:59:09;;;;;;;9.50;6.90;;;19.50;69.00;;;;;;5000178;28;20438;-42
2020/12/16 20:01:37;;;;;;;11.38;7.97;;;19.50;68.20;;;;;;5002273;28;20107;-43
2020/12/16 20:04:03;;;;;;;12.48;7.75;;;19.50;68.40;;;;;;5003475;28;20259;-42
2020/12/16 20:06:33;;;;;;;8.63;6.50;;;19.50;68.20;;;;;;5007366;28;20088;-42
2020/12/16 20:08:58;;;;;;;12.93;7.20;;;19.60;68.10;;;;;;5038615;28;20544;-43
2020/12/16 20:11:24;;;;;;;12.48;7.40;;;19.60;68.00;;;;;;5002344;28;20073;-41
2020/12/16 20:13:50;;;;;;;11.07;6.60;;;19.60;68.00;;;;;;5002022;28;20078;-44
2020/12/16 20:16:16;;;;;;;9.13;6.50;;;19.60;67.90;;;;;;5001802;28;20049;-40
2020/12/16 20:18:42;;;;;;;10.65;5.85;;;19.70;68.60;;;;;;5003943;28;20038;-41
2020/12/16 20:21:08;;;;;;;8.48;6.43;;;19.70;67.80;;;;;;5000821;28;20045;-41
2020/12/16 20:23:33;;;;;;;9.00;6.30;;;19.70;67.90;;;;;;4998956;28;20048;-43
2020/12/16 20:25:59;;;;;;;7.78;5.95;;;19.70;68.40;;;;;;4999122;28;20053;-42
2020/12/16 20:28:25;;;;;;;7.75;6.07;;;19.80;67.80;;;;;;4999192;28;20046;-43
2020/12/16 20:30:50;;;;;;;8.68;5.45;;;19.70;67.80;;;;;;5000259;28;20049;-42
2020/12/16 20:33:17;;;;;;;7.22;5.78;;;19.70;67.80;;;;;;5005578;28;20117;-42
2020/12/16 20:35:43;;;;;;;8.95;5.60;;;19.70;67.70;;;;;;5005405;28;20103;-40
2020/12/16 20:38:10;;;;;;;9.68;5.60;;;19.70;68.00;;;;;;5006585;28;20476;-41
2020/12/16 20:40:35;;;;;;;8.77;5.53;;;19.70;67.90;;;;;;5004894;28;20061;-42
2020/12/16 20:43:01;;;;;;;6.28;5.30;;;19.70;68.10;;;;;;5009683;28;20041;-41
2020/12/16 20:45:26;;;;;;;7.78;5.43;;;19.70;68.00;;;;;;5007617;28;20750;-43
2020/12/16 20:47:52;;;;;;;8.48;5.13;;;19.60;68.10;;;;;;5002769;28;20054;-44
2020/12/16 20:50:18;;;;;;;10.95;5.55;;;19.60;68.20;;;;;;5004220;28;20851;-43
2020/12/16 20:52:43;;;;;;;7.90;4.63;;;19.60;68.30;;;;;;4659101;28;10000324;-42
2020/12/16 20:55:09;;;;;;;11.77;6.43;;;19.60;68.20;;;;;;4999528;28;20120;-43
2020/12/16 20:57:36;;;;;;;10.45;6.78;;;19.60;68.30;;;;;;5006019;28;20073;-41
2020/12/16 21:00:04;;;;;;;14.25;6.82;;;19.60;68.90;;;;;;5006958;28;20191;-44
2020/12/16 21:02:30;;;;;;;12.20;7.47;;;19.60;68.00;;;;;;5009012;28;20167;-42
2020/12/16 21:04:55;;;;;;;12.43;6.50;;;19.60;68.10;;;;;;5001228;28;20587;-42
2020/12/16 21:07:23;;;;;;;10.02;6.88;;;19.60;68.30;;;;;;5006915;28;20060;-42
2020/12/16 21:09:48;;;;;;;13.85;7.45;;;19.50;67.90;;;;;;5004763;28;20073;-44
2020/12/16 21:12:14;;;;;;;13.15;7.75;;;19.60;68.00;;;;;;5005266;28;20088;-42
2020/12/16 21:14:40;;;;;;;13.05;7.40;;;19.50;68.00;;;;;;5005227;28;20054;-44
2020/12/16 21:17:05;;;;;;;13.35;7.65;;;19.50;67.90;;;;;;5010062;28;20049;-42
2020/12/16 21:19:31;;;;;;;10.48;5.95;;;19.50;67.90;;;;;;5002852;28;20156;-40
2020/12/16 21:21:58;;;;;;;9.57;6.47;;;19.50;67.90;;;;;;5002825;28;20081;-49
2020/12/16 21:24:23;;;;;;;9.80;6.05;;;19.50;67.80;;;;;;5005577;28;20045;-41
2020/12/16 21:26:49;;;;;;;13.40;6.38;;;19.50;67.90;;;;;;5003686;28;20049;-41
2020/12/16 21:29:14;;;;;;;11.57;5.65;;;19.50;67.90;;;;;;5007820;28;20071;-43
2020/12/16 21:31:40;;;;;;;11.57;6.38;;;19.50;67.90;;;;;;5012828;28;20038;-42
2020/12/16 21:34:05;;;;;;;9.98;6.18;;;19.50;67.80;;;;;;5003570;28;20050;-42
2020/12/16 21:36:34;;;;;;;14.45;6.40;;;19.50;67.80;;;;;;5007816;28;20718;-42
2020/12/16 21:38:59;;;;;;;10.25;5.72;;;19.50;67.70;;;;;;5004844;28;20391;-44
2020/12/16 21:41:25;;;;;;;10.60;5.78;;;19.50;67.70;;;;;;5005407;28;20057;-42
2020/12/16 21:43:53;;;;;;;7.32;5.22;;;19.50;67.60;;;;;;5009650;28;20050;-42